Time;durP1;ratioP1;P1;durP2;ratioP2;P2;SDS_P1;SDS_P2;PMS_P1;PMS_P2;Temp;Humidity;BMP_temperature;BMP_pressure;BME280_temperature;BME280_humidity;BME280_pressure;Samples;Min_cycle;Max_cycle;Signal;HPM_P1;HPM_P2
2023/08/16 00:02:14;;;;;;;1.30;0.20;;;14.30;99.90;;;;;;5033617;28;20512;-76
2023/08/16 00:04:41;;;;;;;1.15;0.30;;;14.30;99.90;;;;;;5033628;28;20013;-76
2023/08/16 00:07:07;;;;;;;1.42;0.40;;;14.30;99.90;;;;;;5033466;28;20029;-76
2023/08/16 00:09:33;;;;;;;4.60;0.50;;;14.80;99.90;;;;;;5033518;28;20022;-76
2023/08/16 00:11:59;;;;;;;1.40;0.43;;;14.30;99.90;;;;;;5033446;28;20083;-76
2023/08/16 00:14:24;;;;;;;3.22;0.30;;;14.20;99.90;;;;;;5033466;28;20400;-77
2023/08/16 00:16:50;;;;;;;0.82;0.38;;;14.20;99.90;;;;;;5031836;28;20056;-75
2023/08/16 00:19:15;;;;;;;1.67;0.10;;;14.10;99.90;;;;;;5033313;28;20087;-76
2023/08/16 00:21:41;;;;;;;3.97;0.32;;;14.10;99.90;;;;;;5033095;28;20117;-76
2023/08/16 00:24:07;;;;;;;3.60;0.50;;;14.00;99.90;;;;;;5033414;28;20477;-76
2023/08/16 00:26:33;;;;;;;1.55;0.30;;;14.00;99.90;;;;;;5033166;28;20021;-76
2023/08/16 00:28:59;;;;;;;1.25;0.43;;;14.00;99.90;;;;;;5031916;28;20014;-76
2023/08/16 00:31:24;;;;;;;1.95;0.65;;;13.90;99.90;;;;;;5033190;28;20486;-76
2023/08/16 00:33:50;;;;;;;5.35;0.52;;;13.90;99.90;;;;;;5033863;28;20036;-76
2023/08/16 00:36:16;;;;;;;1.02;0.30;;;14.00;99.90;;;;;;5031857;28;20116;-76
2023/08/16 00:38:44;;;;;;;2.58;0.50;;;14.00;99.90;;;;;;5033157;28;20105;-76
2023/08/16 00:41:11;;;;;;;1.83;0.38;;;13.90;99.90;;;;;;5031749;28;20033;-76
2023/08/16 00:43:36;;;;;;;0.77;0.40;;;13.90;99.90;;;;;;5031697;28;20021;-76
2023/08/16 00:46:03;;;;;;;3.22;0.45;;;13.80;99.90;;;;;;5031802;28;20108;-76
2023/08/16 00:48:32;;;;;;;3.53;1.15;;;13.80;99.90;;;;;;5033136;28;20022;-76
2023/08/16 00:50:58;;;;;;;2.20;0.17;;;13.80;99.90;;;;;;5031732;28;20104;-76
2023/08/16 00:53:26;;;;;;;1.63;0.32;;;13.70;99.90;;;;;;5033102;28;20096;-76
2023/08/16 00:55:52;;;;;;;1.00;0.30;;;13.70;99.90;;;;;;5033020;28;20021;-76
2023/08/16 00:58:18;;;;;;;0.60;0.20;;;13.70;99.90;;;;;;5031649;28;20469;-76
2023/08/16 01:00:43;;;;;;;1.95;0.22;;;13.70;99.90;;;;;;5034381;28;20033;-76
2023/08/16 01:03:09;;;;;;;1.80;0.30;;;13.70;99.90;;;;;;5036830;28;20033;-76
2023/08/16 01:05:35;;;;;;;0.82;0.15;;;13.70;99.90;;;;;;5036984;28;20028;-76
2023/08/16 01:08:02;;;;;;;2.78;0.60;;;13.60;99.90;;;;;;5036877;28;20238;-76
2023/08/16 01:10:50;;;;;;;0.90;0.32;;;13.60;99.90;;;;;;5036795;28;20021;-76
2023/08/16 01:13:46;;;;;;;1.52;0.30;;;13.60;99.90;;;;;;5033767;28;20037;-76
2023/08/16 01:16:12;;;;;;;1.73;0.30;;;13.60;99.90;;;;;;5036450;28;20039;-76
2023/08/16 01:18:40;;;;;;;2.67;0.50;;;13.60;99.90;;;;;;5035367;28;20112;-76
2023/08/16 01:21:08;;;;;;;1.35;0.47;;;13.60;99.90;;;;;;5035198;28;20087;-76
2023/08/16 01:23:43;;;;;;;1.95;0.30;;;13.70;99.90;;;;;;5035292;28;20109;-76
2023/08/16 01:26:28;;;;;;;0.45;0.20;;;13.70;99.90;;;;;;5036399;28;20036;-76
2023/08/16 01:28:55;;;;;;;2.67;0.57;;;13.60;99.90;;;;;;5036395;28;20018;-76
2023/08/16 01:31:21;;;;;;;2.15;0.17;;;13.60;99.90;;;;;;5036394;28;20090;-76
2023/08/16 01:33:47;;;;;;;2.78;0.40;;;13.60;99.90;;;;;;5036405;28;20481;-76
2023/08/16 01:36:12;;;;;;;1.58;0.57;;;13.60;99.90;;;;;;5036167;28;20026;-76
2023/08/16 01:38:39;;;;;;;0.57;0.10;;;13.60;99.90;;;;;;5034961;28;20052;-76
2023/08/16 01:41:13;;;;;;;1.85;0.20;;;13.60;99.90;;;;;;5035992;28;20214;-76
2023/08/16 01:43:43;;;;;;;1.35;0.20;;;13.50;99.90;;;;;;5036272;28;20018;-76
2023/08/16 01:46:09;;;;;;;0.50;0.20;;;13.50;99.90;;;;;;5036047;28;20021;-76
2023/08/16 01:48:37;;;;;;;2.85;0.40;;;13.50;99.90;;;;;;5036183;28;20047;-76
2023/08/16 01:51:04;;;;;;;2.15;0.30;;;13.50;99.90;;;;;;5035880;28;20018;-76
2023/08/16 01:53:29;;;;;;;0.60;0.20;;;13.50;99.90;;;;;;5036062;28;20067;-76
2023/08/16 01:55:55;;;;;;;2.22;0.40;;;13.50;99.90;;;;;;5034256;28;20107;-76
2023/08/16 01:58:21;;;;;;;0.32;0.22;;;13.70;99.90;;;;;;5035861;28;20033;-76
2023/08/16 02:00:46;;;;;;;0.32;0.20;;;13.40;99.90;;;;;;5035780;28;20105;-76
2023/08/16 02:03:12;;;;;;;1.83;0.35;;;13.40;99.90;;;;;;5034625;28;20025;-76
2023/08/16 02:05:37;;;;;;;1.17;0.32;;;13.40;99.90;;;;;;5035691;28;20478;-76
2023/08/16 02:08:04;;;;;;;2.05;0.20;;;13.40;99.90;;;;;;5034441;28;20017;-75
2023/08/16 02:10:29;;;;;;;4.00;0.63;;;13.50;99.90;;;;;;5035672;28;20026;-76
2023/08/16 02:12:55;;;;;;;0.98;0.20;;;13.50;99.90;;;;;;5035552;28;20033;-76
2023/08/16 02:15:20;;;;;;;0.63;0.00;;;13.40;99.90;;;;;;5035720;28;20040;-76
2023/08/16 02:17:46;;;;;;;1.20;0.10;;;13.40;99.90;;;;;;5035631;28;20060;-76
2023/08/16 02:20:12;;;;;;;1.13;0.30;;;13.40;99.90;;;;;;5035412;28;20040;-76
2023/08/16 02:22:39;;;;;;;3.25;0.10;;;13.40;99.90;;;;;;5035439;28;20116;-76
2023/08/16 02:25:05;;;;;;;2.70;0.32;;;13.40;99.90;;;;;;5035804;28;20022;-76
2023/08/16 02:27:32;;;;;;;2.92;0.10;;;13.30;99.90;;;;;;5035336;28;20018;-76
2023/08/16 02:29:58;;;;;;;3.83;0.82;;;13.30;99.90;;;;;;5035272;28;20025;-76
2023/08/16 02:32:23;;;;;;;0.77;0.25;;;13.30;99.90;;;;;;5035163;28;20108;-76
2023/08/16 02:34:49;;;;;;;0.98;0.32;;;13.20;99.90;;;;;;5035607;28;20025;-76
2023/08/16 02:37:14;;;;;;;2.40;0.30;;;13.20;99.90;;;;;;5033934;28;20068;-76
2023/08/16 02:39:40;;;;;;;0.45;0.20;;;13.20;99.90;;;;;;5035168;28;20041;-76
2023/08/16 02:42:06;;;;;;;1.27;0.43;;;13.20;99.90;;;;;;5035083;28;20497;-75
2023/08/16 02:44:31;;;;;;;1.63;0.38;;;13.20;99.90;;;;;;5033800;28;20037;-76
2023/08/16 02:46:57;;;;;;;2.58;0.22;;;13.20;99.90;;;;;;5035457;28;20396;-76
2023/08/16 02:49:22;;;;;;;0.93;0.38;;;13.20;99.90;;;;;;5034993;28;20412;-76
2023/08/16 02:51:48;;;;;;;2.13;0.08;;;13.20;99.90;;;;;;5034938;28;20036;-76
2023/08/16 02:54:14;;;;;;;1.92;0.30;;;13.20;99.90;;;;;;5034701;28;20022;-75
2023/08/16 02:56:40;;;;;;;2.95;0.22;;;13.30;99.90;;;;;;5034929;28;20033;-76
2023/08/16 02:59:05;;;;;;;4.00;0.25;;;13.30;99.90;;;;;;5033307;28;20060;-76
2023/08/16 03:01:31;;;;;;;3.33;0.40;;;13.20;99.90;;;;;;5034709;28;20033;-76
2023/08/16 03:03:57;;;;;;;1.10;0.40;;;;;;;;;;5034679;28;20018;-76
2023/08/16 03:06:22;;;;;;;6.47;0.88;;;13.20;99.90;;;;;;5034664;28;20052;-76
2023/08/16 03:08:48;;;;;;;0.85;0.40;;;13.10;99.90;;;;;;5034652;28;20014;-76
2023/08/16 03:11:13;;;;;;;1.73;0.70;;;13.50;99.90;;;;;;5033275;28;20021;-76
2023/08/16 03:13:39;;;;;;;3.22;0.43;;;13.10;99.90;;;;;;5034544;28;20435;-76
2023/08/16 03:16:04;;;;;;;1.23;0.80;;;13.10;99.90;;;;;;5034206;28;20493;-76
2023/08/16 03:18:30;;;;;;;4.30;1.58;;;13.50;99.90;;;;;;5033208;28;20477;-76
2023/08/16 03:20:55;;;;;;;1.85;0.82;;;13.00;99.90;;;;;;5034287;28;20396;-76
2023/08/16 03:23:21;;;;;;;1.58;0.90;;;13.10;99.90;;;;;;5032553;28;20068;-76
2023/08/16 03:25:46;;;;;;;2.63;0.80;;;13.10;99.90;;;;;;5034130;28;20441;-76
2023/08/16 03:28:12;;;;;;;2.47;0.50;;;13.10;99.90;;;;;;5032865;28;20025;-76
2023/08/16 03:30:39;;;;;;;3.50;0.45;;;13.00;99.90;;;;;;5032873;28;20014;-76
2023/08/16 03:33:05;;;;;;;5.05;0.50;;;13.00;99.90;;;;;;5034162;28;20025;-76
2023/08/16 03:35:30;;;;;;;2.53;0.30;;;12.90;99.90;;;;;;5033910;28;20032;-76
2023/08/16 03:37:56;;;;;;;2.83;0.40;;;12.90;99.90;;;;;;5034182;28;20477;-76
2023/08/16 03:40:21;;;;;;;1.00;0.55;;;12.80;99.90;;;;;;5033906;28;20037;-76
2023/08/16 03:42:47;;;;;;;3.00;0.40;;;12.80;99.90;;;;;;5034055;28;20025;-76
2023/08/16 03:45:12;;;;;;;1.73;0.32;;;12.80;99.90;;;;;;5033951;28;20032;-76
2023/08/16 03:47:38;;;;;;;1.80;0.52;;;12.80;99.90;;;;;;5032645;28;20128;-76
2023/08/16 03:50:05;;;;;;;1.88;0.77;;;12.70;99.90;;;;;;5033897;28;20072;-76
2023/08/16 03:52:30;;;;;;;2.40;0.93;;;12.70;99.90;;;;;;5033785;28;20025;-76
2023/08/16 03:54:56;;;;;;;2.30;0.90;;;12.60;99.90;;;;;;5033716;28;20466;-76
2023/08/16 03:57:22;;;;;;;1.83;0.45;;;12.60;99.90;;;;;;5032386;28;20021;-76
2023/08/16 03:59:51;;;;;;;4.63;1.00;;;12.60;99.90;;;;;;5033713;28;20405;-76
2023/08/16 04:02:17;;;;;;;1.80;0.60;;;12.60;99.90;;;;;;5033519;28;20029;-76
2023/08/16 04:04:42;;;;;;;3.20;0.60;;;12.80;99.90;;;;;;5033496;28;20033;-76
2023/08/16 04:07:08;;;;;;;3.53;1.23;;;12.60;99.90;;;;;;5033529;28;20018;-76
2023/08/16 04:09:34;;;;;;;3.03;1.38;;;12.50;99.90;;;;;;5032105;28;20022;-76
2023/08/16 04:12:00;;;;;;;3.22;0.65;;;12.50;99.90;;;;;;5033514;28;20041;-76
2023/08/16 04:14:25;;;;;;;2.90;0.80;;;12.50;99.90;;;;;;5032019;28;20021;-76
2023/08/16 04:16:51;;;;;;;1.40;0.68;;;12.50;99.90;;;;;;5033308;28;20029;-76
2023/08/16 04:19:16;;;;;;;3.30;1.05;;;12.50;99.90;;;;;;5033349;28;20021;-76
2023/08/16 04:21:42;;;;;;;0.70;0.35;;;12.50;99.90;;;;;;5033231;28;20029;-76
2023/08/16 04:24:07;;;;;;;1.38;0.50;;;12.50;99.90;;;;;;5031827;28;20512;-76
2023/08/16 04:26:33;;;;;;;5.43;0.60;;;12.50;99.90;;;;;;5031988;28;20052;-76
2023/08/16 04:28:59;;;;;;;1.15;0.40;;;12.50;99.90;;;;;;5032064;28;20025;-76
2023/08/16 04:31:24;;;;;;;2.83;0.68;;;12.40;99.90;;;;;;5033218;28;20029;-76
2023/08/16 04:33:50;;;;;;;4.85;0.98;;;12.40;99.90;;;;;;5033178;28;20029;-76
2023/08/16 04:36:16;;;;;;;2.80;0.40;;;12.40;99.90;;;;;;5032116;28;20025;-76
2023/08/16 04:38:42;;;;;;;3.97;0.77;;;12.40;99.90;;;;;;5031902;28;20060;-76
2023/08/16 04:41:07;;;;;;;4.55;0.70;;;12.40;99.90;;;;;;5031794;28;20033;-76
2023/08/16 04:43:33;;;;;;;1.30;0.70;;;12.70;99.90;;;;;;5033075;28;20057;-76
2023/08/16 04:45:58;;;;;;;3.63;0.73;;;12.40;99.90;;;;;;5033105;28;20022;-76
2023/08/16 04:48:24;;;;;;;2.55;0.40;;;12.40;99.90;;;;;;5032989;28;20405;-76
2023/08/16 04:50:50;;;;;;;2.10;0.60;;;12.50;99.90;;;;;;5033039;28;20021;-76
2023/08/16 04:53:17;;;;;;;6.60;1.05;;;13.60;99.90;;;;;;5033176;28;20028;-76
2023/08/16 04:55:42;;;;;;;3.20;0.60;;;12.60;99.90;;;;;;5032849;28;20033;-76
2023/08/16 04:58:08;;;;;;;0.80;0.35;;;12.70;99.90;;;;;;5031532;28;20022;-76
2023/08/16 05:00:33;;;;;;;2.50;0.52;;;12.70;99.90;;;;;;5032799;28;20124;-76
2023/08/16 05:02:59;;;;;;;1.27;0.52;;;12.80;99.90;;;;;;5031579;28;20022;-76
2023/08/16 05:05:25;;;;;;;4.18;0.40;;;12.80;99.90;;;;;;5031574;28;20022;-76
2023/08/16 05:07:51;;;;;;;4.80;0.60;;;12.90;99.90;;;;;;5032920;28;20029;-76
2023/08/16 05:10:16;;;;;;;2.92;0.80;;;13.00;99.90;;;;;;5032730;28;20021;-76
2023/08/16 05:12:42;;;;;;;3.92;1.63;;;13.00;99.90;;;;;;5032703;28;20481;-76
2023/08/16 05:15:10;;;;;;;5.60;1.70;;;13.20;99.90;;;;;;5032708;28;20022;-76
2023/08/16 05:17:35;;;;;;;3.55;1.80;;;13.40;99.90;;;;;;5031396;28;20021;-76
2023/08/16 05:20:01;;;;;;;3.13;1.50;;;13.50;99.90;;;;;;5032821;28;20041;-75
2023/08/16 05:22:27;;;;;;;3.53;1.48;;;13.60;99.90;;;;;;5032587;28;20071;-76
2023/08/16 05:24:52;;;;;;;3.60;1.10;;;13.70;99.90;;;;;;5032896;28;20084;-76
2023/08/16 05:27:18;;;;;;;4.38;2.35;;;13.80;99.90;;;;;;5031457;28;20017;-76
2023/08/16 05:29:44;;;;;;;5.07;1.50;;;13.90;99.90;;;;;;5032651;28;20025;-76
2023/08/16 05:32:09;;;;;;;4.22;1.77;;;14.10;99.90;;;;;;5032561;28;20025;-76
2023/08/16 05:34:35;;;;;;;2.40;1.38;;;14.20;99.90;;;;;;5031192;28;20017;-76
2023/08/16 05:37:00;;;;;;;4.47;1.35;;;14.30;99.90;;;;;;5032636;28;20179;-76
2023/08/16 05:39:26;;;;;;;3.08;1.73;;;14.50;99.90;;;;;;5031182;28;20087;-76
2023/08/16 05:41:51;;;;;;;5.35;2.13;;;14.50;99.90;;;;;;5032528;28;20052;-77
2023/08/16 05:44:17;;;;;;;5.88;1.65;;;14.70;99.90;;;;;;5032232;28;20079;-76
2023/08/16 05:46:43;;;;;;;8.95;2.08;;;14.90;99.90;;;;;;5034319;28;20072;-76
2023/08/16 05:49:08;;;;;;;6.63;1.58;;;15.00;99.90;;;;;;5036028;28;20058;-76
2023/08/16 05:51:34;;;;;;;3.95;1.60;;;15.20;99.90;;;;;;5036616;28;20059;-78
2023/08/16 05:54:01;;;;;;;4.68;2.50;;;15.90;99.90;;;;;;5039885;28;20045;-77
2023/08/16 05:56:27;;;;;;;4.88;2.10;;;15.60;99.90;;;;;;5039693;28;20497;-78
2023/08/16 05:58:52;;;;;;;6.43;2.35;;;15.80;99.90;;;;;;5039929;28;20029;-77
2023/08/16 06:01:18;;;;;;;5.32;2.30;;;16.00;99.90;;;;;;5040836;28;20132;-77
2023/08/16 06:03:43;;;;;;;4.47;2.58;;;16.10;99.90;;;;;;5041701;28;20151;-77
2023/08/16 06:06:09;;;;;;;5.65;2.42;;;16.30;99.90;;;;;;5040766;28;20061;-78
2023/08/16 06:08:34;;;;;;;7.85;1.92;;;16.50;99.90;;;;;;5040533;28;20053;-78
2023/08/16 06:11:01;;;;;;;5.90;1.98;;;16.60;99.90;;;;;;5039503;28;20026;-78
2023/08/16 06:13:27;;;;;;;3.67;1.90;;;16.90;99.90;;;;;;5040435;28;20064;-77
2023/08/16 06:15:52;;;;;;;5.20;1.70;;;16.80;99.90;;;;;;5040667;28;20025;-77
2023/08/16 06:18:18;;;;;;;8.02;1.50;;;17.20;99.90;;;;;;5040886;28;20070;-78
2023/08/16 06:20:43;;;;;;;4.78;1.83;;;17.40;99.90;;;;;;5038890;28;20018;-78
2023/08/16 06:23:10;;;;;;;7.82;1.77;;;17.50;99.90;;;;;;5039853;28;20487;-79
2023/08/16 06:25:36;;;;;;;5.10;1.50;;;17.90;99.90;;;;;;5040669;28;20052;-79
2023/08/16 06:28:01;;;;;;;1.95;1.27;;;17.80;99.90;;;;;;5038855;28;20036;-78
2023/08/16 06:30:27;;;;;;;8.38;1.13;;;17.90;99.90;;;;;;5040953;28;20022;-78
2023/08/16 06:32:53;;;;;;;3.45;1.10;;;18.00;99.90;;;;;;5040933;28;20105;-78
2023/08/16 06:35:18;;;;;;;2.10;0.22;;;18.00;99.90;;;;;;5040171;28;20025;-78
2023/08/16 06:37:46;;;;;;;3.75;0.70;;;17.90;99.90;;;;;;5040754;28;20021;-78
2023/08/16 06:40:12;;;;;;;4.10;0.45;;;17.90;99.90;;;;;;5040161;28;20485;-78
2023/08/16 06:42:39;;;;;;;5.15;0.50;;;17.90;99.90;;;;;;5038826;28;20401;-78
2023/08/16 06:45:06;;;;;;;1.95;0.55;;;18.00;99.90;;;;;;5040983;28;20021;-78
2023/08/16 06:47:34;;;;;;;4.35;0.40;;;18.00;99.90;;;;;;5038961;28;20025;-78
2023/08/16 06:50:00;;;;;;;3.25;0.60;;;18.00;99.90;;;;;;5038830;28;20108;-78
2023/08/16 06:52:25;;;;;;;3.92;0.60;;;18.10;99.90;;;;;;5039565;28;20029;-78
2023/08/16 06:54:51;;;;;;;2.47;0.88;;;18.20;99.90;;;;;;5039404;28;20039;-78
2023/08/16 06:57:16;;;;;;;1.63;0.47;;;18.40;99.90;;;;;;5037212;28;20120;-80
2023/08/16 06:59:42;;;;;;;2.75;0.63;;;18.80;99.90;;;;;;5038648;28;20053;-78
2023/08/16 07:02:11;;;;;;;3.80;0.55;;;18.90;99.90;;;;;;5037627;28;20030;-79
2023/08/16 07:04:40;;;;;;;;;;;19.40;99.90;;;;;;5039363;28;20048;-79
2023/08/16 07:07:06;;;;;;;4.32;0.30;;;19.60;99.90;;;;;;5038385;28;19913;-81
2023/08/16 07:09:31;;;;;;;2.47;0.15;;;19.80;99.90;;;;;;5039122;28;20066;-80
2023/08/16 07:11:57;;;;;;;0.55;0.22;;;20.80;99.90;;;;;;5038642;28;20057;-80
2023/08/16 07:14:22;;;;;;;1.45;0.28;;;20.00;99.90;;;;;;5037648;28;20033;-80
2023/08/16 07:16:48;;;;;;;1.63;0.10;;;20.00;99.90;;;;;;5036496;28;20038;-79
2023/08/16 07:19:14;;;;;;;1.30;0.43;;;20.00;99.90;;;;;;5037283;28;20091;-79
2023/08/16 07:21:39;;;;;;;1.75;0.50;;;20.00;99.90;;;;;;5037620;28;20388;-79
2023/08/16 07:24:05;;;;;;;5.03;0.55;;;20.10;99.90;;;;;;5037375;28;20021;-80
2023/08/16 07:26:31;;;;;;;2.95;0.63;;;20.00;99.90;;;;;;5037859;28;20082;-81
2023/08/16 07:28:57;;;;;;;2.22;0.35;;;20.20;99.90;;;;;;5040024;28;20485;-79
2023/08/16 07:31:23;;;;;;;3.08;0.77;;;20.20;99.90;;;;;;5039578;28;20032;-80
2023/08/16 07:33:48;;;;;;;7.30;0.15;;;20.30;99.90;;;;;;5037247;28;20093;-79
2023/08/16 07:36:14;;;;;;;2.88;0.00;;;20.30;99.90;;;;;;5038720;28;20029;-77
2023/08/16 07:38:39;;;;;;;3.45;0.47;;;20.40;99.90;;;;;;5039188;28;20025;-79
2023/08/16 07:41:05;;;;;;;3.55;0.63;;;20.40;99.90;;;;;;5038441;28;20040;-79
2023/08/16 07:43:30;;;;;;;4.18;0.30;;;20.50;99.90;;;;;;5040011;28;20028;-79
2023/08/16 07:45:56;;;;;;;4.30;0.28;;;21.20;99.90;;;;;;5037908;28;20017;-80
2023/08/16 07:48:21;;;;;;;0.60;0.00;;;20.70;99.90;;;;;;5038474;28;20017;-78
2023/08/16 07:50:49;;;;;;;1.52;0.10;;;20.80;99.90;;;;;;5039253;28;20025;-80
2023/08/16 07:53:14;;;;;;;4.93;0.10;;;20.80;99.90;;;;;;5037792;28;20030;-81
2023/08/16 07:55:40;;;;;;;3.15;0.15;;;20.90;99.90;;;;;;5038326;28;20025;-77
2023/08/16 07:58:06;;;;;;;2.08;0.00;;;21.40;99.90;;;;;;5038069;28;20484;-79
2023/08/16 08:00:31;;;;;;;1.45;0.35;;;21.10;99.90;;;;;;5037606;28;20390;-79
2023/08/16 08:02:57;;;;;;;0.80;0.00;;;21.20;99.90;;;;;;5037457;28;20026;-79
2023/08/16 08:05:23;;;;;;;0.70;0.00;;;21.30;99.90;;;;;;5037086;28;20010;-78
2023/08/16 08:07:51;;;;;;;0.65;0.00;;;21.40;99.90;;;;;;5037426;28;20060;-80
2023/08/16 08:10:17;;;;;;;1.25;0.00;;;21.30;99.90;;;;;;5035298;28;20504;-79
2023/08/16 08:12:45;;;;;;;0.82;0.00;;;21.40;99.90;;;;;;5037244;28;20029;-79
2023/08/16 08:15:10;;;;;;;0.40;0.00;;;21.60;99.90;;;;;;5037935;28;20172;-80
2023/08/16 08:17:36;;;;;;;2.35;0.00;;;21.70;99.90;;;;;;5038386;28;20060;-79
2023/08/16 08:20:03;;;;;;;0.38;0.00;;;21.70;99.90;;;;;;5038119;28;20029;-79
2023/08/16 08:22:29;;;;;;;0.60;0.00;;;21.80;99.90;;;;;;5037363;28;20049;-79
2023/08/16 08:24:54;;;;;;;0.70;0.00;;;22.00;99.90;;;;;;5037304;28;20025;-79
2023/08/16 08:27:20;;;;;;;0.60;0.00;;;22.10;99.90;;;;;;5037946;28;20028;-81
2023/08/16 08:29:46;;;;;;;0.95;0.00;;;22.10;99.90;;;;;;5038636;28;20035;-79
2023/08/16 08:32:11;;;;;;;2.05;0.30;;;22.20;99.90;;;;;;5038913;28;20053;-79
2023/08/16 08:34:38;;;;;;;1.55;0.10;;;22.20;99.90;;;;;;5038789;28;20096;-80
2023/08/16 08:37:04;;;;;;;0.00;0.00;;;22.20;99.90;;;;;;5035821;28;20086;-77
2023/08/16 08:39:30;;;;;;;0.38;0.00;;;22.30;99.90;;;;;;5037730;28;20068;-79
2023/08/16 08:41:58;;;;;;;0.40;0.00;;;22.40;99.90;;;;;;5039127;28;20029;-77
2023/08/16 08:44:25;;;;;;;2.42;0.00;;;22.40;99.90;;;;;;5035139;28;20041;-80
2023/08/16 08:46:51;;;;;;;2.75;0.00;;;22.50;99.90;;;;;;5034409;28;20025;-77
2023/08/16 08:49:19;;;;;;;0.15;0.00;;;22.60;99.90;;;;;;5034182;28;20026;-78
2023/08/16 08:51:45;;;;;;;1.42;0.22;;;22.70;99.90;;;;;;5034411;28;20432;-78
2023/08/16 08:54:11;;;;;;;0.85;0.00;;;22.90;99.90;;;;;;5035178;28;20013;-76
2023/08/16 08:56:38;;;;;;;0.25;0.00;;;22.90;99.90;;;;;;5034642;28;20026;-75
2023/08/16 08:59:06;;;;;;;0.82;0.00;;;23.20;99.90;;;;;;5034326;28;20058;-77
2023/08/16 09:01:33;;;;;;;1.17;0.10;;;23.10;99.90;;;;;;5032679;28;20052;-76
2023/08/16 09:04:01;;;;;;;0.30;0.00;;;23.20;99.90;;;;;;5034789;28;20014;-77
2023/08/16 09:06:26;;;;;;;1.38;0.10;;;23.20;99.90;;;;;;5033735;28;20104;-75
2023/08/16 09:08:53;;;;;;;5.38;0.10;;;23.40;99.90;;;;;;5032992;28;20551;-75
2023/08/16 09:11:20;;;;;;;0.22;0.00;;;23.40;99.90;;;;;;5032167;28;20049;-78
2023/08/16 09:13:47;;;;;;;0.63;0.00;;;23.30;99.90;;;;;;5035091;28;20025;-81
2023/08/16 09:16:14;;;;;;;0.65;0.10;;;23.30;99.90;;;;;;5034469;28;20112;-80
2023/08/16 09:18:52;;;;;;;0.57;0.00;;;23.40;99.90;;;;;;5033879;28;20028;-80
2023/08/16 09:21:24;;;;;;;0.95;0.00;;;23.30;99.90;;;;;;5034760;28;20035;-81
2023/08/16 09:23:58;;;;;;;0.73;0.10;;;23.20;99.90;;;;;;5037959;28;20524;-79
2023/08/16 09:26:26;;;;;;;0.30;0.00;;;23.30;99.90;;;;;;5039570;28;20017;-80
2023/08/16 09:28:58;;;;;;;0.90;0.10;;;23.30;99.90;;;;;;5038010;28;20029;-81
2023/08/16 09:31:29;;;;;;;0.30;0.00;;;23.40;99.90;;;;;;5038040;28;20477;-78
2023/08/16 09:34:01;;;;;;;0.00;0.00;;;23.40;99.90;;;;;;5037061;28;20049;-79
2023/08/16 09:36:29;;;;;;;1.45;0.25;;;23.50;99.90;;;;;;5037986;28;20025;-78
2023/08/16 09:39:00;;;;;;;0.75;0.00;;;23.50;99.90;;;;;;5037417;28;20048;-80
2023/08/16 09:41:26;;;;;;;0.57;0.00;;;23.60;99.90;;;;;;5038645;28;20389;-81
2023/08/16 09:43:51;;;;;;;0.52;0.00;;;23.60;99.90;;;;;;5037959;28;20025;-80
2023/08/16 09:46:20;;;;;;;0.55;0.00;;;23.60;99.90;;;;;;5039331;28;20388;-80
2023/08/16 09:48:46;;;;;;;0.38;0.00;;;23.70;99.90;;;;;;5038944;28;20017;-78
2023/08/16 09:51:12;;;;;;;0.90;0.00;;;23.80;99.90;;;;;;5038927;28;20025;-80
2023/08/16 09:53:46;;;;;;;0.85;0.00;;;23.90;99.90;;;;;;5036827;28;20021;-77
2023/08/16 09:56:13;;;;;;;1.42;0.10;;;23.90;99.90;;;;;;5037604;28;20025;-79
2023/08/16 09:58:38;;;;;;;0.55;0.00;;;24.00;99.90;;;;;;5038344;28;20512;-77
2023/08/16 10:01:04;;;;;;;0.20;0.00;;;24.10;99.90;;;;;;5038022;28;20034;-78
2023/08/16 10:03:30;;;;;;;0.05;0.00;;;24.10;99.90;;;;;;5038847;28;20073;-77
2023/08/16 10:05:56;;;;;;;0.00;0.00;;;24.30;99.90;;;;;;5037032;28;20037;-79
2023/08/16 10:08:23;;;;;;;0.75;0.00;;;24.30;99.90;;;;;;5037225;28;20022;-79
2023/08/16 10:10:49;;;;;;;1.63;0.20;;;24.40;99.70;;;;;;5038333;28;20018;-79
2023/08/16 10:13:15;;;;;;;1.08;0.17;;;24.40;99.00;;;;;;5038320;28;20021;-75
2023/08/16 10:15:42;;;;;;;0.00;0.00;;;24.50;99.50;;;;;;5036271;28;20068;-75
2023/08/16 10:18:11;;;;;;;0.20;0.00;;;24.60;99.00;;;;;;5035739;28;20093;-77
2023/08/16 10:20:40;;;;;;;0.08;0.00;;;24.70;99.00;;;;;;5035751;28;20025;-77
2023/08/16 10:23:10;;;;;;;1.95;0.00;;;24.80;98.50;;;;;;5035541;28;20053;-77
2023/08/16 10:25:46;;;;;;;1.85;0.00;;;24.80;98.30;;;;;;5035503;28;20044;-77
2023/08/16 10:28:15;;;;;;;1.17;0.00;;;24.70;98.30;;;;;;5036200;28;20032;-77
2023/08/16 10:30:43;;;;;;;0.20;0.00;;;24.80;97.80;;;;;;5035632;28;20017;-77
2023/08/16 10:33:14;;;;;;;1.13;0.10;;;25.00;98.30;;;;;;5032882;28;20036;-77
2023/08/16 10:35:40;;;;;;;1.00;0.00;;;25.10;97.10;;;;;;5035586;28;20029;-77
2023/08/16 10:38:06;;;;;;;1.05;0.00;;;25.20;97.20;;;;;;5035224;28;20097;-77
2023/08/16 10:40:32;;;;;;;0.05;0.00;;;25.30;96.70;;;;;;5034118;28;20060;-77
2023/08/16 10:43:03;;;;;;;0.50;0.15;;;25.50;96.60;;;;;;5035289;28;20017;-77
2023/08/16 10:45:34;;;;;;;0.75;0.00;;;25.60;96.50;;;;;;5036373;28;20026;-76
2023/08/16 10:48:09;;;;;;;1.55;0.00;;;25.60;96.00;;;;;;5035725;28;20056;-77
2023/08/16 10:50:35;;;;;;;0.10;0.00;;;25.60;96.30;;;;;;5035356;28;20488;-79
2023/08/16 10:53:01;;;;;;;0.60;0.00;;;25.70;96.00;;;;;;5036143;28;20052;-79
2023/08/16 10:55:27;;;;;;;0.20;0.00;;;25.80;96.10;;;;;;5037302;28;20108;-78
2023/08/16 10:57:54;;;;;;;0.10;0.00;;;26.00;96.10;;;;;;5037754;28;20053;-78
2023/08/16 11:00:29;;;;;;;0.38;0.10;;;26.10;94.70;;;;;;5037143;28;20033;-79
2023/08/16 11:02:54;;;;;;;1.13;0.00;;;26.30;94.30;;;;;;5036549;28;20033;-76
2023/08/16 11:05:24;;;;;;;0.10;0.00;;;26.40;95.50;;;;;;5036386;28;20024;-79
2023/08/16 11:07:50;;;;;;;0.73;0.00;;;26.40;94.00;;;;;;5036059;28;20544;-79
2023/08/16 11:10:15;;;;;;;0.30;0.10;;;26.30;94.10;;;;;;5037699;28;20013;-79
2023/08/16 11:12:41;;;;;;;0.03;0.00;;;26.40;94.20;;;;;;5036493;28;20033;-77
2023/08/16 11:15:08;;;;;;;0.43;0.00;;;26.70;94.00;;;;;;5037686;28;20021;-77
2023/08/16 11:17:34;;;;;;;4.05;0.00;;;27.10;94.10;;;;;;5035143;28;20026;-79
2023/08/16 11:20:01;;;;;;;0.45;0.00;;;27.40;93.40;;;;;;5034788;28;20029;-76
2023/08/16 11:22:27;;;;;;;0.00;0.00;;;27.60;93.00;;;;;;5037444;28;20026;-80
2023/08/16 11:24:52;;;;;;;0.98;0.00;;;27.80;91.80;;;;;;5033849;28;20058;-81
2023/08/16 11:27:24;;;;;;;0.80;0.00;;;27.90;91.50;;;;;;5034348;28;20029;-79
2023/08/16 11:29:51;;;;;;;1.25;0.00;;;27.80;90.40;;;;;;5036585;28;20500;-80
2023/08/16 11:32:36;;;;;;;0.65;0.00;;;27.80;90.80;;;;;;5037635;28;20477;-78
2023/08/16 11:35:08;;;;;;;0.03;0.00;;;27.80;91.70;;;;;;5037210;28;20026;-80
2023/08/16 11:37:35;;;;;;;1.17;0.25;;;27.90;91.00;;;;;;5036030;28;20425;-79
2023/08/16 11:40:04;;;;;;;0.17;0.10;;;27.90;91.30;;;;;;5036546;28;20136;-77
2023/08/16 11:42:30;;;;;;;0.00;0.00;;;27.90;90.60;;;;;;5036494;28;20025;-80
2023/08/16 11:44:56;;;;;;;0.73;0.00;;;27.90;90.10;;;;;;5036536;28;20057;-80
2023/08/16 11:47:22;;;;;;;1.38;0.00;;;27.80;90.20;;;;;;5037146;28;20036;-78
2023/08/16 11:49:49;;;;;;;0.00;0.00;;;27.80;90.40;;;;;;5035064;28;20022;-77
2023/08/16 11:52:22;;;;;;;1.20;0.10;;;27.90;89.70;;;;;;5036536;28;20052;-79
2023/08/16 11:54:59;;;;;;;0.75;0.00;;;28.00;88.90;;;;;;5036273;28;20026;-77
2023/08/16 11:57:25;;;;;;;0.08;0.00;;;28.20;90.00;;;;;;5036488;28;20037;-80
2023/08/16 11:59:57;;;;;;;0.47;0.00;;;28.20;89.60;;;;;;5036076;28;20495;-77
2023/08/16 12:02:26;;;;;;;3.35;0.32;;;28.30;90.20;;;;;;5035520;28;20121;-78
2023/08/16 12:04:52;;;;;;;1.67;0.00;;;28.50;88.10;;;;;;5029584;28;20650;-79
2023/08/16 12:07:20;;;;;;;1.00;0.00;;;28.40;87.40;;;;;;5036098;28;20028;-80
2023/08/16 12:09:49;;;;;;;;;;;28.40;90.30;;;;;;5036953;28;20047;-78
2023/08/16 12:12:15;;;;;;;0.20;0.00;;;28.60;90.30;;;;;;5035474;28;20379;-80
2023/08/16 12:14:41;;;;;;;0.20;0.00;;;28.90;90.70;;;;;;5033884;28;20018;-79
2023/08/16 12:17:06;;;;;;;0.65;0.08;;;29.00;90.00;;;;;;5035642;28;20029;-78
2023/08/16 12:19:32;;;;;;;0.70;0.00;;;29.00;89.50;;;;;;5032421;28;20436;-77
2023/08/16 12:21:57;;;;;;;1.10;0.00;;;29.00;88.40;;;;;;5035529;28;20114;-79
2023/08/16 12:24:23;;;;;;;0.65;0.00;;;29.20;87.20;;;;;;5035405;28;20017;-77
2023/08/16 12:26:49;;;;;;;1.17;0.03;;;29.20;85.70;;;;;;5036377;28;20029;-78
2023/08/16 12:29:14;;;;;;;0.28;0.00;;;29.10;88.20;;;;;;5033492;28;20547;-80
2023/08/16 12:31:40;;;;;;;0.73;0.10;;;29.30;85.50;;;;;;5035408;28;20385;-78
2023/08/16 12:34:07;;;;;;;0.20;0.00;;;29.40;85.00;;;;;;5035835;28;20029;-79
2023/08/16 12:36:32;;;;;;;0.17;0.00;;;29.40;85.20;;;;;;5034375;28;20052;-80
2023/08/16 12:38:58;;;;;;;0.20;0.00;;;29.40;86.80;;;;;;5034089;28;20033;-78
2023/08/16 12:41:24;;;;;;;0.90;0.00;;;29.40;89.30;;;;;;5034063;28;20038;-77
2023/08/16 12:43:51;;;;;;;1.17;0.00;;;29.50;85.90;;;;;;5034518;28;20393;-78
2023/08/16 12:46:16;;;;;;;0.47;0.00;;;29.70;85.70;;;;;;5034138;28;20033;-78